Time;durP1;ratioP1;P1;durP2;ratioP2;P2;SDS_P1;SDS_P2;PMS_P1;PMS_P2;Temp;Humidity;BMP_temperature;BMP_pressure;BME280_temperature;BME280_humidity;BME280_pressure;Samples;Min_cycle;Max_cycle;Signal;HPM_P1;HPM_P2
2023/07/18 00:00:57;;;;;;;15.50;7.70;;;27.90;99.90;;;;;;1785727;80;21309;-71
2023/07/18 00:03:33;;;;;;;21.05;10.85;;;27.90;99.90;;;;;;1780205;79;21506;-71
2023/07/18 00:06:04;;;;;;;40.25;16.65;;;27.90;99.90;;;;;;1769120;79;21178;-69
2023/07/18 00:08:40;;;;;;;18.05;11.57;;;28.00;99.90;;;;;;1809455;78;21099;-71
2023/07/18 00:11:12;;;;;;;21.55;10.55;;;28.00;99.90;;;;;;1788413;79;21139;-70
2023/07/18 00:13:49;;;;;;;16.10;7.80;;;28.00;99.90;;;;;;1781733;79;21172;-71
2023/07/18 00:16:21;;;;;;;13.80;7.67;;;28.00;99.90;;;;;;1784925;79;21220;-71
2023/07/18 00:18:55;;;;;;;15.48;6.92;;;28.10;99.90;;;;;;1776589;79;21148;-72
2023/07/18 00:21:27;;;;;;;16.97;7.75;;;28.10;99.90;;;;;;1820872;78;21165;-71
2023/07/18 00:24:00;;;;;;;19.15;7.67;;;28.10;99.90;;;;;;1811431;79;21695;-71
2023/07/18 00:26:34;;;;;;;14.60;7.00;;;28.20;99.90;;;;;;1783075;79;21078;-71
2023/07/18 00:29:07;;;;;;;15.63;7.20;;;28.20;99.90;;;;;;1776299;79;21116;-70
2023/07/18 00:31:39;;;;;;;12.03;6.95;;;28.30;99.90;;;;;;1783813;79;21578;-71
2023/07/18 00:34:13;;;;;;;12.18;6.72;;;28.30;99.90;;;;;;1818982;78;21276;-70
2023/07/18 00:36:46;;;;;;;9.75;6.00;;;28.40;99.90;;;;;;1811323;78;21187;-70
2023/07/18 00:39:19;;;;;;;11.83;6.10;;;28.40;99.90;;;;;;1776086;79;21200;-71
2023/07/18 00:41:52;;;;;;;10.20;5.75;;;28.50;99.90;;;;;;1784836;79;21095;-71
2023/07/18 00:44:25;;;;;;;9.53;5.60;;;28.50;99.90;;;;;;1838525;76;21130;-70
2023/07/18 00:46:58;;;;;;;9.45;6.05;;;28.50;99.90;;;;;;1772903;79;21230;-69
2023/07/18 00:49:32;;;;;;;11.65;6.85;;;28.60;99.90;;;;;;1776970;79;21594;-72
2023/07/18 00:52:06;;;;;;;10.90;6.17;;;28.60;99.90;;;;;;1810641;78;21083;-71
2023/07/18 00:54:41;;;;;;;17.17;6.65;;;28.60;99.90;;;;;;1806342;77;21150;-70
2023/07/18 00:57:17;;;;;;;18.87;6.90;;;28.70;99.90;;;;;;1777419;80;21150;-71
2023/07/18 00:59:52;;;;;;;16.95;6.90;;;28.70;99.90;;;;;;1801992;78;21480;-73
2023/07/18 01:02:25;;;;;;;9.63;5.33;;;28.80;99.90;;;;;;1814141;77;21090;-69
2023/07/18 01:04:58;;;;;;;11.73;6.05;;;28.80;99.90;;;;;;1789951;79;21177;-74
2023/07/18 01:07:31;;;;;;;15.05;6.58;;;28.80;99.90;;;;;;1788466;79;21241;-71
2023/07/18 01:10:17;;;;;;;14.13;6.10;;;28.90;99.90;;;;;;1779424;79;21259;-69
2023/07/18 01:12:51;;;;;;;16.42;7.97;;;28.90;99.90;;;;;;1816778;77;21417;-70
2023/07/18 01:15:26;;;;;;;18.17;6.35;;;28.90;99.90;;;;;;1796937;79;21174;-70
2023/07/18 01:18:05;;;;;;;19.67;8.25;;;28.90;99.90;;;;;;1813297;77;21087;-71
2023/07/18 01:20:37;;;;;;;10.82;5.90;;;29.00;99.90;;;;;;1814036;78;21131;-71
2023/07/18 01:23:10;;;;;;;15.28;6.55;;;29.00;99.90;;;;;;1783624;79;21126;-70
2023/07/18 01:25:43;;;;;;;13.00;6.47;;;29.00;99.90;;;;;;1787156;79;21613;-72
2023/07/18 01:28:17;;;;;;;16.37;6.12;;;29.10;99.90;;;;;;1780541;80;21153;-69
2023/07/18 01:30:49;;;;;;;26.60;13.58;;;29.00;99.90;;;;;;1780990;79;21696;-69
2023/07/18 01:33:21;;;;;;;12.65;8.35;;;29.10;99.90;;;;;;1812648;77;21105;-71
2023/07/18 01:35:52;;;;;;;28.38;11.57;;;29.00;99.90;;;;;;1782277;80;21145;-70
2023/07/18 01:38:29;;;;;;;28.10;10.70;;;29.00;99.90;;;;;;1798255;79;21102;-71
2023/07/18 01:41:01;;;;;;;34.50;11.75;;;29.00;99.90;;;;;;1824006;77;21122;-70
2023/07/18 01:43:35;;;;;;;25.82;14.47;;;29.00;99.90;;;;;;1814522;77;21149;-71
2023/07/18 01:46:08;;;;;;;17.67;9.40;;;29.00;99.90;;;;;;1815196;77;21105;-70
2023/07/18 01:48:39;;;;;;;17.65;11.70;;;29.00;99.90;;;;;;1787158;79;21604;-71
2023/07/18 01:51:11;;;;;;;40.33;15.75;;;29.00;99.90;;;;;;1818170;77;21119;-71
2023/07/18 01:53:45;;;;;;;28.00;14.60;;;29.00;99.90;;;;;;1783824;79;21518;-70
2023/07/18 01:56:19;;;;;;;17.37;7.22;;;29.10;99.90;;;;;;1785933;79;21229;-72
2023/07/18 01:58:52;;;;;;;23.57;9.28;;;29.00;99.90;;;;;;1819263;77;21566;-70
2023/07/18 02:01:26;;;;;;;28.27;7.35;;;29.10;99.90;;;;;;1829662;77;21193;-70
2023/07/18 02:04:00;;;;;;;23.73;8.35;;;29.10;99.90;;;;;;1837353;77;21160;-71
2023/07/18 02:06:33;;;;;;;28.42;8.38;;;29.10;99.90;;;;;;1830245;77;21201;-70
2023/07/18 02:09:07;;;;;;;57.43;11.05;;;29.20;99.90;;;;;;1793106;79;21092;-71
2023/07/18 02:11:39;;;;;;;15.58;6.08;;;29.30;99.90;;;;;;1824305;77;21141;-70
2023/07/18 02:14:15;;;;;;;27.15;9.05;;;29.30;99.90;;;;;;1819872;77;21131;-70
2023/07/18 02:16:48;;;;;;;26.37;8.25;;;29.40;99.90;;;;;;1815250;77;21084;-69
2023/07/18 02:19:21;;;;;;;17.02;8.13;;;29.40;99.90;;;;;;1802586;79;21807;-70
2023/07/18 02:21:57;;;;;;;36.48;8.83;;;29.40;99.90;;;;;;1812679;77;21174;-69
2023/07/18 02:24:30;;;;;;;35.60;11.50;;;29.50;99.90;;;;;;1844371;77;21123;-71
2023/07/18 02:27:03;;;;;;;29.95;16.55;;;29.50;99.90;;;;;;1828336;77;21090;-71
2023/07/18 02:29:34;;;;;;;27.42;12.13;;;29.50;99.90;;;;;;1841863;77;21087;-70
2023/07/18 02:32:07;;;;;;;46.42;18.95;;;29.50;99.90;;;;;;1827215;77;21131;-71
2023/07/18 02:34:40;;;;;;;29.72;11.55;;;29.50;99.90;;;;;;1820126;77;21185;-71
2023/07/18 02:37:14;;;;;;;7.90;5.20;;;29.60;99.90;;;;;;1807561;78;21176;-69
2023/07/18 02:39:47;;;;;;;24.72;8.10;;;29.70;99.90;;;;;;1810690;79;21135;-72
2023/07/18 02:42:21;;;;;;;29.98;6.92;;;29.70;99.90;;;;;;1820595;78;21095;-73
2023/07/18 02:44:53;;;;;;;7.35;4.70;;;29.80;99.90;;;;;;1796909;79;21554;-71
2023/07/18 02:47:25;;;;;;;9.65;4.03;;;29.80;99.90;;;;;;1796322;79;21139;-71
2023/07/18 02:49:58;;;;;;;20.62;9.43;;;29.90;99.90;;;;;;1788259;79;21209;-72
2023/07/18 02:52:29;;;;;;;28.50;7.75;;;29.80;99.90;;;;;;1789290;79;21194;-70
2023/07/18 02:55:03;;;;;;;26.97;6.60;;;29.90;99.90;;;;;;1782401;79;21222;-72
2023/07/18 02:57:37;;;;;;;22.55;6.20;;;29.90;99.90;;;;;;1798587;79;21190;-71
2023/07/18 03:00:19;;;;;;;19.17;5.55;;;30.00;99.90;;;;;;1804940;78;21713;-72
2023/07/18 03:02:45;;;;;;;23.95;7.10;;;30.10;99.90;;;;;;1781238;79;21100;-71
2023/07/18 03:05:22;;;;;;;19.10;5.22;;;30.20;99.90;;;;;;1835288;77;21429;-71
2023/07/18 03:07:55;;;;;;;27.22;6.37;;;30.30;99.90;;;;;;1795046;79;21143;-70
2023/07/18 03:10:27;;;;;;;9.90;3.30;;;30.40;99.90;;;;;;1828384;77;21146;-70
2023/07/18 03:13:00;;;;;;;13.78;5.28;;;30.40;99.80;;;;;;1798136;79;21557;-70
2023/07/18 03:15:33;;;;;;;24.00;7.25;;;30.50;99.90;;;;;;1800672;78;21163;-70
2023/07/18 03:18:04;;;;;;;53.92;9.35;;;30.60;99.70;;;;;;1807221;78;21127;-71
2023/07/18 03:20:40;;;;;;;56.33;11.60;;;30.60;99.50;;;;;;1804230;78;21100;-71
2023/07/18 03:23:13;;;;;;;9.93;3.55;;;30.70;99.70;;;;;;1804132;79;21660;-69
2023/07/18 03:25:44;;;;;;;14.18;3.22;;;30.80;98.80;;;;;;1815062;78;21084;-68
2023/07/18 03:28:17;;;;;;;8.23;3.27;;;30.80;98.50;;;;;;1802781;79;21159;-69
2023/07/18 03:30:50;;;;;;;6.97;3.20;;;30.90;98.50;;;;;;1806478;78;21202;-71
2023/07/18 03:33:24;;;;;;;20.68;5.87;;;31.00;98.60;;;;;;1791675;79;21116;-72
2023/07/18 03:35:58;;;;;;;23.05;5.55;;;31.10;98.20;;;;;;1829895;77;21060;-70
2023/07/18 03:38:31;;;;;;;25.92;6.55;;;31.10;98.20;;;;;;1792519;79;21516;-70
2023/07/18 03:41:03;;;;;;;16.75;3.58;;;31.10;97.90;;;;;;1782882;79;21111;-71
2023/07/18 03:43:35;;;;;;;23.85;7.75;;;31.20;97.90;;;;;;1789303;79;21135;-70
2023/07/18 03:46:08;;;;;;;13.68;4.67;;;31.20;97.90;;;;;;1826245;77;21138;-69
2023/07/18 03:48:41;;;;;;;16.93;4.58;;;31.20;97.80;;;;;;1816676;77;21184;-71
2023/07/18 03:51:15;;;;;;;5.20;2.60;;;31.20;98.30;;;;;;1804957;79;21072;-69
2023/07/18 03:53:53;;;;;;;7.92;2.87;;;31.20;97.30;;;;;;1802866;79;21096;-71
2023/07/18 03:56:30;;;;;;;15.18;4.37;;;31.20;97.20;;;;;;1785317;78;21149;-73
2023/07/18 03:59:00;;;;;;;16.23;5.25;;;31.20;97.20;;;;;;1803470;79;21092;-69
2023/07/18 04:01:33;;;;;;;31.60;8.30;;;31.20;97.70;;;;;;1806141;78;21538;-69
2023/07/18 04:04:05;;;;;;;35.48;13.65;;;31.20;97.90;;;;;;1793864;79;21228;-72
2023/07/18 04:06:38;;;;;;;11.33;5.58;;;31.20;98.10;;;;;;1792611;79;21209;-69
2023/07/18 04:09:10;;;;;;;8.73;4.22;;;31.20;97.70;;;;;;1800514;79;21100;-72
2023/07/18 04:11:46;;;;;;;14.38;5.30;;;31.20;98.00;;;;;;1826285;77;21224;-67
2023/07/18 04:14:18;;;;;;;8.88;4.67;;;31.20;97.70;;;;;;1818153;77;21111;-73
2023/07/18 04:16:53;;;;;;;6.75;3.27;;;31.10;98.00;;;;;;1818827;77;21111;-70
2023/07/18 04:19:26;;;;;;;63.25;14.20;;;31.10;98.10;;;;;;1825814;77;21184;-70
2023/07/18 04:21:59;;;;;;;58.63;12.85;;;31.10;98.20;;;;;;1786083;79;21597;-69
2023/07/18 04:24:32;;;;;;;71.30;16.48;;;31.10;98.20;;;;;;1786320;79;21146;-71
2023/07/18 04:27:06;;;;;;;39.63;9.50;;;31.10;98.30;;;;;;1803367;79;21132;-70
2023/07/18 04:29:47;;;;;;;45.75;11.95;;;31.10;98.70;;;;;;1789503;79;21684;-71
2023/07/18 04:32:20;;;;;;;11.60;3.60;;;31.20;98.50;;;;;;1790471;79;21135;-69
2023/07/18 04:34:54;;;;;;;6.25;2.40;;;31.20;98.40;;;;;;1788379;80;21547;-70
2023/07/18 04:37:30;;;;;;;;;;;31.20;97.60;;;;;;1820026;78;21249;-71
2023/07/18 04:40:05;;;;;;;13.55;4.65;;;31.20;98.40;;;;;;1816492;77;20206;-72
2023/07/18 04:42:35;;;;;;;6.08;2.50;;;31.20;98.10;;;;;;1818133;79;21107;-68
2023/07/18 04:45:08;;;;;;;25.68;5.62;;;31.30;97.50;;;;;;1815396;77;21181;-70
2023/07/18 04:47:42;;;;;;;28.67;7.03;;;31.30;97.70;;;;;;1823482;77;21096;-72
2023/07/18 04:50:13;;;;;;;8.60;5.42;;;31.30;97.60;;;;;;1836773;77;21146;-71
2023/07/18 04:52:46;;;;;;;74.15;22.35;;;31.40;97.50;;;;;;1804763;78;21597;-70
2023/07/18 04:55:19;;;;;;;53.75;9.68;;;31.40;97.50;;;;;;1796450;78;21101;-69
2023/07/18 04:57:53;;;;;;;26.73;12.65;;;31.30;97.30;;;;;;1803057;78;21229;-72
2023/07/18 05:00:29;;;;;;;28.92;10.20;;;31.30;97.60;;;;;;1805793;78;21159;-70
2023/07/18 05:03:02;;;;;;;17.52;7.35;;;31.30;97.90;;;;;;1798056;78;21712;-71
2023/07/18 05:05:34;;;;;;;13.28;7.10;;;31.30;97.90;;;;;;1802593;78;21115;-70
2023/07/18 05:08:12;;;;;;;8.88;3.65;;;31.40;97.60;;;;;;1802775;78;21150;-69
2023/07/18 05:10:46;;;;;;;7.85;3.15;;;31.30;97.30;;;;;;1817551;78;21170;-71
2023/07/18 05:13:19;;;;;;;7.35;3.45;;;31.30;97.80;;;;;;1800856;78;21080;-71
2023/07/18 05:15:52;;;;;;;6.83;4.03;;;31.40;97.50;;;;;;1809967;78;21088;-71
2023/07/18 05:18:26;;;;;;;7.87;2.98;;;31.40;97.80;;;;;;1808057;78;21166;-71
2023/07/18 05:20:58;;;;;;;11.25;3.60;;;31.40;97.40;;;;;;1793659;78;21716;-72
2023/07/18 05:23:36;;;;;;;11.60;2.95;;;31.40;97.50;;;;;;1804097;78;21620;-71
2023/07/18 05:26:10;;;;;;;9.10;4.08;;;31.50;97.40;;;;;;1803959;78;21571;-72
2023/07/18 05:28:41;;;;;;;6.58;2.00;;;31.50;97.70;;;;;;1774305;80;22118;-72
2023/07/18 05:31:12;;;;;;;5.35;2.10;;;31.40;97.70;;;;;;1807916;78;21204;-71
2023/07/18 05:33:49;;;;;;;11.57;2.65;;;31.50;97.50;;;;;;1807653;78;21173;-70
2023/07/18 05:36:22;;;;;;;8.90;3.12;;;31.60;97.30;;;;;;1766999;80;21504;-69
2023/07/18 05:38:55;;;;;;;9.48;2.90;;;31.60;97.50;;;;;;1796193;80;21120;-70
2023/07/18 05:41:30;;;;;;;5.70;2.50;;;31.70;97.50;;;;;;1807032;78;21679;-71
2023/07/18 05:44:02;;;;;;;5.97;2.65;;;31.90;97.00;;;;;;1812955;78;21606;-72
2023/07/18 05:46:35;;;;;;;5.62;2.87;;;31.90;96.90;;;;;;1810899;78;21545;-71
2023/07/18 05:49:08;;;;;;;6.53;3.95;;;32.00;96.90;;;;;;1799544;78;21181;-69
2023/07/18 05:51:40;;;;;;;8.30;2.98;;;32.00;97.00;;;;;;1794786;78;21636;-70
2023/07/18 05:54:14;;;;;;;9.15;4.03;;;32.00;97.10;;;;;;1802072;78;21169;-70
2023/07/18 05:56:45;;;;;;;6.10;3.42;;;32.20;97.00;;;;;;1794992;80;21084;-72
2023/07/18 05:59:18;;;;;;;3.87;2.02;;;32.30;96.40;;;;;;1806032;78;21178;-70
2023/07/18 06:01:49;;;;;;;5.65;2.95;;;32.40;96.30;;;;;;1818916;77;21558;-71
2023/07/18 06:04:22;;;;;;;8.03;3.12;;;32.40;96.10;;;;;;1816513;77;21088;-70
2023/07/18 06:06:55;;;;;;;14.87;8.25;;;32.50;96.30;;;;;;1827908;77;21165;-71
2023/07/18 06:09:28;;;;;;;6.53;3.20;;;32.60;96.40;;;;;;1821369;77;21095;-71
2023/07/18 06:12:02;;;;;;;7.22;3.70;;;32.60;96.50;;;;;;1818469;77;21174;-70
2023/07/18 06:14:35;;;;;;;9.03;3.85;;;32.80;99.90;;;;;;1817772;77;21209;-71
2023/07/18 06:17:12;;;;;;;12.13;3.10;;;32.90;96.10;;;;;;1820630;77;21123;-71
2023/07/18 06:19:46;;;;;;;15.15;4.33;;;33.00;95.60;;;;;;1817286;79;21107;-73
2023/07/18 06:22:23;;;;;;;36.45;9.43;;;33.20;95.40;;;;;;1822234;77;21124;-70
2023/07/18 06:24:58;;;;;;;59.53;12.43;;;33.10;95.20;;;;;;1814866;79;21127;-70
2023/07/18 06:27:31;;;;;;;10.15;3.80;;;33.20;95.00;;;;;;1815104;78;21195;-69
2023/07/18 06:30:08;;;;;;;11.15;4.10;;;33.30;94.70;;;;;;1832621;77;21110;-70
2023/07/18 06:32:41;;;;;;;7.55;2.65;;;33.20;94.50;;;;;;1810678;78;21147;-69
2023/07/18 06:35:12;;;;;;;15.78;4.70;;;33.20;94.50;;;;;;1801025;79;21143;-72
2023/07/18 06:37:47;;;;;;;13.35;6.45;;;33.20;94.50;;;;;;1816882;77;21126;-69
2023/07/18 06:40:21;;;;;;;12.75;4.20;;;33.20;94.40;;;;;;1792302;79;21169;-71
2023/07/18 06:42:54;;;;;;;14.63;5.10;;;33.30;94.60;;;;;;1811512;78;21237;-69
2023/07/18 06:45:28;;;;;;;32.80;7.95;;;33.30;94.20;;;;;;1795297;79;21100;-70
2023/07/18 06:48:02;;;;;;;32.60;7.17;;;33.30;94.30;;;;;;1817335;78;21511;-70
2023/07/18 06:50:37;;;;;;;59.88;9.78;;;33.30;94.50;;;;;;1803562;79;21123;-70
2023/07/18 06:53:10;;;;;;;13.30;3.40;;;33.40;94.50;;;;;;1825791;78;21634;-71
2023/07/18 06:55:53;;;;;;;4.62;2.92;;;33.40;93.90;;;;;;1834908;77;21545;-71
2023/07/18 06:58:27;;;;;;;4.37;2.47;;;33.50;93.80;;;;;;1831983;77;21147;-71
2023/07/18 07:01:00;;;;;;;4.22;2.30;;;33.40;94.00;;;;;;1820268;77;21099;-74
2023/07/18 07:03:34;;;;;;;3.87;2.00;;;33.40;93.60;;;;;;1839947;77;21565;-73
2023/07/18 07:06:17;;;;;;;9.30;2.50;;;33.30;93.80;;;;;;1831961;76;21089;-72
2023/07/18 07:08:50;;;;;;;5.50;2.33;;;33.20;94.30;;;;;;1807793;79;21146;-70
2023/07/18 07:11:24;;;;;;;4.97;2.40;;;33.10;94.20;;;;;;1817327;78;21076;-72
2023/07/18 07:13:58;;;;;;;9.78;4.42;;;33.00;94.00;;;;;;1806042;79;21111;-73
2023/07/18 07:16:30;;;;;;;15.65;5.53;;;32.90;94.20;;;;;;1812847;78;21569;-70
2023/07/18 07:19:03;;;;;;;7.65;2.50;;;32.80;94.50;;;;;;1792021;79;21175;-72
2023/07/18 07:21:39;;;;;;;5.70;2.47;;;32.80;94.80;;;;;;1789015;79;21750;-71
2023/07/18 07:24:13;;;;;;;17.30;2.72;;;32.80;94.90;;;;;;1800682;79;21107;-73
2023/07/18 07:26:46;;;;;;;9.33;2.50;;;32.70;95.00;;;;;;1828928;77;21294;-72
2023/07/18 07:29:19;;;;;;;12.82;3.98;;;32.70;95.00;;;;;;1781163;79;21135;-70
2023/07/18 07:31:52;;;;;;;16.48;3.83;;;32.70;95.20;;;;;;1790022;79;21609;-71
2023/07/18 07:34:25;;;;;;;12.60;2.98;;;32.60;95.30;;;;;;1791129;79;21199;-72
2023/07/18 07:36:57;;;;;;;17.52;3.98;;;32.70;95.40;;;;;;1794098;78;21232;-72
2023/07/18 07:39:31;;;;;;;14.70;3.83;;;32.70;95.00;;;;;;1795039;79;21190;-71
2023/07/18 07:42:04;;;;;;;7.08;2.90;;;32.70;95.10;;;;;;1787021;79;21550;-70
2023/07/18 07:44:37;;;;;;;14.58;4.80;;;32.70;95.10;;;;;;1809893;79;21562;-70
2023/07/18 07:47:10;;;;;;;6.55;2.47;;;32.70;95.10;;;;;;1837511;77;21131;-72
2023/07/18 07:49:43;;;;;;;8.53;3.30;;;32.70;94.80;;;;;;1822228;77;21139;-72
2023/07/18 07:52:15;;;;;;;15.18;3.87;;;32.60;95.10;;;;;;1839117;77;21216;-72
2023/07/18 07:54:51;;;;;;;10.82;3.92;;;32.70;95.20;;;;;;1800497;78;21088;-73
2023/07/18 07:57:24;;;;;;;22.20;4.12;;;32.70;95.10;;;;;;1797919;79;21119;-71
2023/07/18 07:59:58;;;;;;;14.85;3.65;;;32.80;95.10;;;;;;1793745;79;21221;-71
2023/07/18 08:02:32;;;;;;;11.83;3.65;;;32.80;94.30;;;;;;1825807;77;21123;-70
2023/07/18 08:05:05;;;;;;;8.30;4.58;;;32.80;94.20;;;;;;1844242;77;21217;-72
2023/07/18 08:07:39;;;;;;;10.25;4.47;;;32.80;94.60;;;;;;1799668;78;21167;-72
2023/07/18 08:10:12;;;;;;;46.33;10.53;;;32.80;94.80;;;;;;1824458;77;21161;-70
2023/07/18 08:12:45;;;;;;;14.65;4.55;;;32.80;95.00;;;;;;1830585;77;21193;-71
2023/07/18 08:15:18;;;;;;;10.43;3.17;;;32.90;94.50;;;;;;1826362;77;21195;-71
2023/07/18 08:17:51;;;;;;;8.85;3.20;;;32.90;94.60;;;;;;1833244;77;21254;-71
2023/07/18 08:20:24;;;;;;;21.45;4.67;;;32.90;94.60;;;;;;1799406;78;21072;-72
2023/07/18 08:22:57;;;;;;;14.35;6.08;;;32.90;94.50;;;;;;1795222;78;21092;-71
2023/07/18 08:25:34;;;;;;;18.95;6.58;;;33.00;93.60;;;;;;1797826;78;21163;-71
2023/07/18 08:28:05;;;;;;;18.52;5.95;;;33.00;94.00;;;;;;1791489;78;21178;-71
2023/07/18 08:30:36;;;;;;;14.33;5.40;;;33.10;94.00;;;;;;1805782;78;21194;-70
2023/07/18 08:33:10;;;;;;;17.60;4.10;;;33.10;94.20;;;;;;1797032;78;21600;-71
2023/07/18 08:35:44;;;;;;;17.20;7.25;;;33.10;94.40;;;;;;1792543;78;21173;-70
2023/07/18 08:38:15;;;;;;;19.23;8.75;;;33.10;93.80;;;;;;1790570;78;21182;-71
2023/07/18 08:40:50;;;;;;;7.67;4.22;;;33.10;94.20;;;;;;1794803;78;21204;-70
2023/07/18 08:43:23;;;;;;;11.93;4.15;;;33.10;93.90;;;;;;1797710;78;21561;-72
2023/07/18 08:46:03;;;;;;;5.35;2.15;;;33.10;93.80;;;;;;1798653;78;21607;-73
2023/07/18 08:48:37;;;;;;;55.05;7.78;;;33.10;93.70;;;;;;1838481;77;21091;-71
2023/07/18 08:51:10;;;;;;;13.25;2.85;;;33.20;94.30;;;;;;1792864;79;21099;-71
2023/07/18 08:53:43;;;;;;;33.28;6.55;;;33.20;94.20;;;;;;1807146;78;21111;-73
2023/07/18 08:56:15;;;;;;;29.77;4.92;;;33.20;93.90;;;;;;1808231;78;21173;-72
2023/07/18 08:58:49;;;;;;;15.88;4.03;;;33.20;93.60;;;;;;1778856;78;21156;-73
2023/07/18 09:01:22;;;;;;;29.02;7.50;;;33.20;93.40;;;;;;1829579;76;21213;-71
2023/07/18 09:03:55;;;;;;;25.32;4.33;;;33.20;94.20;;;;;;1820501;78;21099;-74
2023/07/18 09:06:33;;;;;;;19.20;5.67;;;33.20;93.90;;;;;;1811105;78;21193;-71
2023/07/18 09:09:09;;;;;;;31.60;5.85;;;33.10;94.00;;;;;;1816771;78;21534;-73
2023/07/18 09:11:41;;;;;;;38.58;5.75;;;33.10;94.20;;;;;;1801912;78;21117;-72
2023/07/18 09:14:26;;;;;;;27.27;5.78;;;33.20;94.40;;;;;;1802722;78;21119;-71
2023/07/18 09:17:03;;;;;;;11.60;3.40;;;33.10;94.20;;;;;;1798028;78;21189;-71
2023/07/18 09:19:41;;;;;;;11.60;2.87;;;33.10;94.20;;;;;;1786244;78;21106;-71
2023/07/18 09:22:21;;;;;;;17.32;3.60;;;33.10;94.30;;;;;;1819141;78;21518;-72
2023/07/18 09:24:52;;;;;;;10.03;3.58;;;33.10;94.40;;;;;;1837517;78;21162;-71
2023/07/18 09:27:25;;;;;;;30.05;12.98;;;33.10;94.30;;;;;;1813734;78;21170;-70
2023/07/18 09:29:57;;;;;;;6.97;3.80;;;33.00;94.20;;;;;;1803878;79;21103;-71
2023/07/18 09:32:30;;;;;;;10.82;4.17;;;32.90;94.40;;;;;;1803750;78;21208;-72
2023/07/18 09:35:04;;;;;;;6.85;2.40;;;32.80;94.90;;;;;;1799499;78;21185;-72
2023/07/18 09:37:38;;;;;;;6.03;2.52;;;32.50;95.10;;;;;;1797782;79;21230;-72
2023/07/18 09:40:10;;;;;;;5.92;2.45;;;32.20;95.50;;;;;;1795779;79;21115;-70
2023/07/18 09:42:46;;;;;;;4.72;2.40;;;31.90;96.20;;;;;;1798446;79;21131;-72
2023/07/18 09:45:17;;;;;;;7.75;2.85;;;31.60;96.70;;;;;;1810823;78;21146;-74
2023/07/18 09:47:48;;;;;;;5.28;2.25;;;31.40;97.00;;;;;;1797146;80;21178;-70
2023/07/18 09:50:20;;;;;;;6.90;2.40;;;31.10;97.30;;;;;;1801184;79;21091;-71
2023/07/18 09:52:51;;;;;;;5.87;2.40;;;31.00;97.70;;;;;;1810871;78;21229;-72
2023/07/18 09:55:34;;;;;;;9.43;3.00;;;30.90;97.80;;;;;;1814340;78;21150;-71
2023/07/18 09:58:00;;;;;;;11.68;3.80;;;30.90;98.00;;;;;;1818736;78;21112;-71
2023/07/18 10:00:33;;;;;;;8.55;3.35;;;30.80;98.10;;;;;;1831243;76;21570;-72
2023/07/18 10:03:05;;;;;;;17.90;3.83;;;30.70;98.20;;;;;;1835356;77;21123;-70
2023/07/18 10:05:37;;;;;;;10.30;3.60;;;30.90;98.40;;;;;;1839345;77;21111;-71
2023/07/18 10:08:09;;;;;;;20.65;3.92;;;30.90;98.30;;;;;;1815059;77;21553;-69
2023/07/18 10:10:40;;;;;;;11.60;5.97;;;30.90;98.30;;;;;;1825139;77;21072;-70
2023/07/18 10:13:11;;;;;;;18.65;10.38;;;30.90;98.30;;;;;;1834076;77;21196;-71
2023/07/18 10:16:01;;;;;;;10.40;2.70;;;30.90;98.40;;;;;;1822197;77;21568;-70
2023/07/18 10:18:35;;;;;;;7.53;3.10;;;30.90;98.20;;;;;;1835731;77;21138;-72
2023/07/18 10:21:06;;;;;;;6.33;2.95;;;30.90;98.10;;;;;;1822027;77;21135;-75
2023/07/18 10:23:44;;;;;;;5.03;2.65;;;30.90;98.40;;;;;;1836092;77;21095;-70
2023/07/18 10:26:15;;;;;;;5.15;1.98;;;30.80;97.50;;;;;;1821244;77;21103;-71
2023/07/18 10:28:48;;;;;;;7.92;2.50;;;30.70;97.30;;;;;;1814586;78;21149;-72
2023/07/18 10:31:29;;;;;;;4.35;1.70;;;30.60;97.50;;;;;;1840194;77;21300;-70
2023/07/18 10:34:16;;;;;;;5.30;2.02;;;30.60;97.30;;;;;;1798036;79;21162;-72
2023/07/18 10:37:01;;;;;;;5.05;2.08;;;30.60;97.40;;;;;;1797164;79;21099;-71
2023/07/18 10:39:40;;;;;;;5.22;2.40;;;30.60;97.50;;;;;;1826086;77;21577;-71
2023/07/18 10:42:24;;;;;;;10.32;3.47;;;30.60;97.60;;;;;;1797493;78;21158;-70
2023/07/18 10:44:57;;;;;;;8.73;3.40;;;30.50;97.80;;;;;;1799385;78;21127;-72
2023/07/18 10:47:27;;;;;;;;;;;30.60;97.90;;;;;;1828392;77;21154;-72
2023/07/18 10:49:59;;;;;;;6.50;3.37;;;30.60;98.00;;;;;;1814904;77;20206;-70
2023/07/18 10:52:30;;;;;;;9.13;3.72;;;30.60;97.80;;;;;;1791516;79;21158;-71
2023/07/18 10:55:06;;;;;;;8.05;3.70;;;30.60;98.00;;;;;;1830719;77;21136;-75
2023/07/18 10:57:40;;;;;;;6.08;3.58;;;30.60;98.00;;;;;;1831110;77;21185;-73
2023/07/18 11:00:09;;;;;;;9.93;3.35;;;30.60;98.20;;;;;;1824825;77;21060;-71
2023/07/18 11:02:44;;;;;;;8.10;3.60;;;30.60;98.10;;;;;;1841945;77;21581;-71
2023/07/18 11:05:16;;;;;;;8.70;4.47;;;30.50;98.20;;;;;;1803219;78;21185;-72
2023/07/18 11:07:50;;;;;;;7.62;4.22;;;30.50;98.40;;;;;;1831763;77;21237;-71
2023/07/18 11:10:22;;;;;;;6.83;3.62;;;30.40;98.50;;;;;;1842587;77;21670;-71
2023/07/18 11:12:54;;;;;;;8.38;4.97;;;30.50;98.30;;;;;;1798954;78;21150;-70
2023/07/18 11:15:25;;;;;;;8.40;3.50;;;30.50;98.20;;;;;;1840176;77;21564;-71
2023/07/18 11:17:56;;;;;;;6.65;2.72;;;30.40;98.20;;;;;;1818725;78;21576;-74
2023/07/18 11:20:28;;;;;;;5.47;2.72;;;30.40;98.10;;;;;;1815651;77;21248;-71
2023/07/18 11:23:00;;;;;;;9.00;2.87;;;30.40;98.00;;;;;;1819058;78;21546;-69
2023/07/18 11:25:31;;;;;;;13.88;4.08;;;30.40;98.10;;;;;;1811762;78;21660;-70
2023/07/18 11:28:04;;;;;;;7.37;3.60;;;30.40;98.10;;;;;;1797473;78;21244;-71
2023/07/18 11:30:35;;;;;;;5.70;3.20;;;30.40;98.20;;;;;;1826135;78;21115;-70
2023/07/18 11:33:16;;;;;;;9.50;3.50;;;30.50;98.20;;;;;;1829851;77;21142;-73
2023/07/18 11:35:48;;;;;;;6.10;3.25;;;30.40;98.20;;;;;;1817606;77;21165;-70
2023/07/18 11:38:21;;;;;;;9.18;3.62;;;30.50;98.20;;;;;;1841881;77;21123;-71
2023/07/18 11:40:52;;;;;;;9.28;4.25;;;30.40;98.20;;;;;;1856588;77;21135;-71
2023/07/18 11:43:23;;;;;;;8.73;3.83;;;30.40;98.40;;;;;;1848389;77;21132;-70
2023/07/18 11:45:57;;;;;;;6.12;3.62;;;30.40;98.70;;;;;;1805603;78;21181;-72
2023/07/18 11:48:29;;;;;;;6.92;3.77;;;30.40;98.80;;;;;;1801035;78;21604;-71
2023/07/18 11:51:06;;;;;;;6.55;3.62;;;30.40;98.80;;;;;;1819288;78;21161;-71
2023/07/18 11:53:37;;;;;;;6.53;3.33;;;30.40;98.80;;;;;;1833121;77;21200;-72
2023/07/18 11:56:08;;;;;;;8.58;3.35;;;30.30;98.90;;;;;;1830093;77;21595;-72
2023/07/18 11:58:40;;;;;;;7.95;3.42;;;30.40;98.90;;;;;;1806107;77;21171;-71
2023/07/18 12:01:11;;;;;;;6.75;3.65;;;30.40;98.90;;;;;;1801801;78;21153;-71
2023/07/18 12:03:43;;;;;;;12.60;9.05;;;30.40;99.00;;;;;;1820649;77;21220;-71
2023/07/18 12:06:16;;;;;;;5.78;3.08;;;30.40;99.00;;;;;;1806161;78;21265;-72
2023/07/18 12:08:49;;;;;;;7.37;3.47;;;30.30;99.00;;;;;;1806032;78;21095;-71
2023/07/18 12:11:21;;;;;;;7.35;3.70;;;30.30;99.00;;;;;;1808859;78;21507;-71
2023/07/18 12:13:52;;;;;;;7.45;3.60;;;30.30;98.90;;;;;;1793654;79;21132;-70
2023/07/18 12:16:23;;;;;;;6.00;3.60;;;30.20;98.90;;;;;;1796747;79;21207;-70
2023/07/18 12:18:54;;;;;;;6.05;3.72;;;30.20;99.10;;;;;;1816733;79;21105;-71
2023/07/18 12:21:25;;;;;;;12.93;4.22;;;30.10;99.10;;;;;;1807709;79;21133;-70
2023/07/18 12:23:56;;;;;;;9.80;4.33;;;30.10;99.20;;;;;;1810422;79;21111;-72
2023/07/18 12:26:28;;;;;;;9.60;4.12;;;30.10;99.30;;;;;;1792501;79;21562;-71
2023/07/18 12:28:59;;;;;;;9.05;3.60;;;30.00;99.40;;;;;;1809834;78;21557;-70
2023/07/18 12:31:32;;;;;;;6.00;3.95;;;30.00;99.50;;;;;;1822144;77;21158;-72
2023/07/18 12:34:03;;;;;;;8.65;4.17;;;30.00;99.50;;;;;;1807359;79;21535;-71
2023/07/18 12:36:34;;;;;;;9.58;4.12;;;30.00;99.40;;;;;;1808449;79;21249;-72
2023/07/18 12:39:06;;;;;;;9.15;4.30;;;30.00;99.40;;;;;;1799696;79;21083;-70
2023/07/18 12:41:37;;;;;;;6.90;3.72;;;30.00;99.30;;;;;;1811953;78;21186;-72
2023/07/18 12:44:08;;;;;;;11.88;6.53;;;30.00;99.30;;;;;;1794581;79;21092;-71
2023/07/18 12:46:41;;;;;;;10.53;5.45;;;30.00;99.00;;;;;;1759979;80;21455;-70
2023/07/18 12:49:18;;;;;;;11.70;4.65;;;30.00;99.20;;;;;;1814546;79;21118;-71
2023/07/18 12:51:50;;;;;;;8.00;3.20;;;30.00;99.30;;;;;;1819093;77;21158;-72
2023/07/18 12:54:22;;;;;;;6.83;3.37;;;29.90;99.20;;;;;;1814487;77;21581;-72
2023/07/18 12:56:53;;;;;;;8.40;3.65;;;29.90;99.00;;;;;;1793280;79;21104;-71
2023/07/18 12:59:24;;;;;;;6.47;3.02;;;29.90;99.20;;;;;;1796548;79;21188;-73
2023/07/18 13:01:55;;;;;;;6.78;3.17;;;29.90;99.30;;;;;;1798002;79;21528;-71
2023/07/18 13:04:27;;;;;;;5.95;2.92;;;29.90;99.00;;;;;;1833268;77;21099;-70
2023/07/18 13:06:59;;;;;;;5.85;3.40;;;29.90;98.90;;;;;;1804754;78;21148;-71
2023/07/18 13:09:31;;;;;;;7.30;3.50;;;29.90;99.10;;;;;;1794851;79;21170;-71
2023/07/18 13:12:02;;;;;;;6.90;4.28;;;29.80;99.10;;;;;;1829987;77;21082;-71